sensor_id;sensor_type;location;lat;lon;timestamp;P1;durP1;ratioP1;P2;durP2;ratioP2
47113;SDS011;32867;51.556;6.832;2023-03-16T00:03:25;7.05;;;2.70;;
47113;SDS011;32867;51.556;6.832;2023-03-16T00:08:29;7.60;;;2.70;;
47113;SDS011;32867;51.556;6.832;2023-03-16T00:13:30;6.93;;;2.58;;
47113;SDS011;32867;51.556;6.832;2023-03-16T00:18:31;8.07;;;2.45;;
47113;SDS011;32867;51.556;6.832;2023-03-16T00:23:37;6.10;;;2.53;;
47113;SDS011;32867;51.556;6.832;2023-03-16T00:28:38;8.40;;;3.05;;
47113;SDS011;32867;51.556;6.832;2023-03-16T00:33:39;6.05;;;2.45;;
47113;SDS011;32867;51.556;6.832;2023-03-16T00:38:41;8.07;;;2.72;;
47113;SDS011;32867;51.556;6.832;2023-03-16T00:43:47;7.13;;;2.53;;
47113;SDS011;32867;51.556;6.832;2023-03-16T00:48:48;7.97;;;2.95;;
47113;SDS011;32867;51.556;6.832;2023-03-16T00:53:49;4.32;;;2.45;;
47113;SDS011;32867;51.556;6.832;2023-03-16T00:58:49;5.55;;;2.58;;
47113;SDS011;32867;51.556;6.832;2023-03-16T01:03:56;5.22;;;2.13;;
47113;SDS011;32867;51.556;6.832;2023-03-16T01:08:58;6.03;;;2.40;;
47113;SDS011;32867;51.556;6.832;2023-03-16T01:13:59;7.30;;;2.70;;
47113;SDS011;32867;51.556;6.832;2023-03-16T01:19:00;5.65;;;2.53;;
47113;SDS011;32867;51.556;6.832;2023-03-16T01:24:01;8.13;;;2.22;;
47113;SDS011;32867;51.556;6.832;2023-03-16T01:29:01;5.82;;;2.10;;
47113;SDS011;32867;51.556;6.832;2023-03-16T01:34:03;5.38;;;2.10;;
47113;SDS011;32867;51.556;6.832;2023-03-16T01:39:05;7.32;;;2.45;;
47113;SDS011;32867;51.556;6.832;2023-03-16T01:44:13;6.75;;;2.72;;
47113;SDS011;32867;51.556;6.832;2023-03-16T01:49:24;4.70;;;2.00;;
47113;SDS011;32867;51.556;6.832;2023-03-16T01:54:31;7.57;;;2.50;;
47113;SDS011;32867;51.556;6.832;2023-03-16T01:59:44;6.97;;;2.10;;
47113;SDS011;32867;51.556;6.832;2023-03-16T02:10:10;4.50;;;2.10;;
47113;SDS011;32867;51.556;6.832;2023-03-16T02:15:14;3.28;;;2.00;;
47113;SDS011;32867;51.556;6.832;2023-03-16T02:20:19;4.50;;;2.22;;
47113;SDS011;32867;51.556;6.832;2023-03-16T02:30:34;4.10;;;2.00;;
47113;SDS011;32867;51.556;6.832;2023-03-16T02:35:37;5.88;;;2.25;;
47113;SDS011;32867;51.556;6.832;2023-03-16T02:40:37;3.63;;;1.75;;
47113;SDS011;32867;51.556;6.832;2023-03-16T02:50:56;4.22;;;1.70;;
47113;SDS011;32867;51.556;6.832;2023-03-16T02:56:00;4.20;;;2.10;;
47113;SDS011;32867;51.556;6.832;2023-03-16T03:01:03;5.10;;;2.00;;
47113;SDS011;32867;51.556;6.832;2023-03-16T03:06:06;4.10;;;2.00;;
47113;SDS011;32867;51.556;6.832;2023-03-16T03:11:09;7.13;;;2.38;;
47113;SDS011;32867;51.556;6.832;2023-03-16T03:16:10;6.18;;;1.92;;
47113;SDS011;32867;51.556;6.832;2023-03-16T03:21:11;2.88;;;1.73;;
47113;SDS011;32867;51.556;6.832;2023-03-16T03:26:14;3.67;;;2.03;;
47113;SDS011;32867;51.556;6.832;2023-03-16T03:31:18;3.42;;;2.00;;
47113;SDS011;32867;51.556;6.832;2023-03-16T03:36:21;5.80;;;2.30;;
47113;SDS011;32867;51.556;6.832;2023-03-16T03:41:22;4.45;;;2.33;;
47113;SDS011;32867;51.556;6.832;2023-03-16T03:46:25;4.53;;;2.28;;
47113;SDS011;32867;51.556;6.832;2023-03-16T03:51:26;5.15;;;2.58;;
47113;SDS011;32867;51.556;6.832;2023-03-16T03:56:43;3.83;;;2.07;;
47113;SDS011;32867;51.556;6.832;2023-03-16T04:01:48;4.68;;;2.20;;
47113;SDS011;32867;51.556;6.832;2023-03-16T04:06:49;3.50;;;2.08;;
47113;SDS011;32867;51.556;6.832;2023-03-16T04:11:50;5.13;;;2.20;;
47113;SDS011;32867;51.556;6.832;2023-03-16T04:16:51;6.03;;;2.30;;
47113;SDS011;32867;51.556;6.832;2023-03-16T04:21:53;6.22;;;2.40;;
47113;SDS011;32867;51.556;6.832;2023-03-16T04:26:54;3.38;;;2.25;;
47113;SDS011;32867;51.556;6.832;2023-03-16T04:31:55;7.63;;;2.40;;
47113;SDS011;32867;51.556;6.832;2023-03-16T04:36:57;5.55;;;2.60;;
47113;SDS011;32867;51.556;6.832;2023-03-16T04:41:59;4.90;;;2.85;;
47113;SDS011;32867;51.556;6.832;2023-03-16T04:47:01;5.35;;;2.70;;
47113;SDS011;32867;51.556;6.832;2023-03-16T04:52:09;6.82;;;2.53;;
47113;SDS011;32867;51.556;6.832;2023-03-16T04:57:10;4.72;;;2.60;;
47113;SDS011;32867;51.556;6.832;2023-03-16T05:02:19;5.88;;;2.90;;
47113;SDS011;32867;51.556;6.832;2023-03-16T05:07:20;4.93;;;2.67;;
47113;SDS011;32867;51.556;6.832;2023-03-16T05:12:25;4.70;;;2.80;;
47113;SDS011;32867;51.556;6.832;2023-03-16T05:17:32;6.20;;;2.97;;
47113;SDS011;32867;51.556;6.832;2023-03-16T05:22:34;7.28;;;3.03;;
47113;SDS011;32867;51.556;6.832;2023-03-16T05:27:44;5.05;;;2.92;;
47113;SDS011;32867;51.556;6.832;2023-03-16T05:32:53;5.90;;;3.00;;
47113;SDS011;32867;51.556;6.832;2023-03-16T05:37:56;7.03;;;3.30;;
47113;SDS011;32867;51.556;6.832;2023-03-16T05:42:56;7.25;;;3.28;;
47113;SDS011;32867;51.556;6.832;2023-03-16T05:48:00;5.50;;;3.15;;
47113;SDS011;32867;51.556;6.832;2023-03-16T05:53:01;5.78;;;3.20;;
47113;SDS011;32867;51.556;6.832;2023-03-16T05:58:03;6.25;;;3.58;;
47113;SDS011;32867;51.556;6.832;2023-03-16T06:03:04;6.85;;;3.70;;
47113;SDS011;32867;51.556;6.832;2023-03-16T06:08:08;7.50;;;4.00;;
47113;SDS011;32867;51.556;6.832;2023-03-16T06:13:11;7.03;;;3.97;;
47113;SDS011;32867;51.556;6.832;2023-03-16T06:18:12;7.25;;;3.85;;
47113;SDS011;32867;51.556;6.832;2023-03-16T06:23:13;7.82;;;4.45;;
47113;SDS011;32867;51.556;6.832;2023-03-16T06:28:14;7.38;;;4.20;;
47113;SDS011;32867;51.556;6.832;2023-03-16T06:33:15;8.35;;;4.25;;
47113;SDS011;32867;51.556;6.832;2023-03-16T06:38:16;8.15;;;4.50;;
47113;SDS011;32867;51.556;6.832;2023-03-16T06:43:44;7.10;;;4.22;;
47113;SDS011;32867;51.556;6.832;2023-03-16T06:48:46;11.60;;;5.15;;
47113;SDS011;32867;51.556;6.832;2023-03-16T06:53:47;9.70;;;3.85;;
47113;SDS011;32867;51.556;6.832;2023-03-16T06:58:48;5.95;;;3.60;;
47113;SDS011;32867;51.556;6.832;2023-03-16T07:03:49;5.40;;;3.80;;
47113;SDS011;32867;51.556;6.832;2023-03-16T07:08:57;6.93;;;4.03;;
47113;SDS011;32867;51.556;6.832;2023-03-16T07:13:58;6.75;;;3.70;;
47113;SDS011;32867;51.556;6.832;2023-03-16T07:19:01;8.45;;;3.95;;
47113;SDS011;32867;51.556;6.832;2023-03-16T07:24:01;8.80;;;3.92;;
47113;SDS011;32867;51.556;6.832;2023-03-16T07:29:09;8.98;;;4.30;;
47113;SDS011;32867;51.556;6.832;2023-03-16T07:34:12;8.15;;;3.95;;
47113;SDS011;32867;51.556;6.832;2023-03-16T07:39:18;8.17;;;3.63;;
47113;SDS011;32867;51.556;6.832;2023-03-16T07:44:20;6.78;;;3.70;;
47113;SDS011;32867;51.556;6.832;2023-03-16T07:49:22;6.85;;;3.90;;
47113;SDS011;32867;51.556;6.832;2023-03-16T07:54:23;7.75;;;3.70;;
47113;SDS011;32867;51.556;6.832;2023-03-16T07:59:24;5.60;;;3.55;;
47113;SDS011;32867;51.556;6.832;2023-03-16T08:04:25;5.38;;;3.33;;
47113;SDS011;32867;51.556;6.832;2023-03-16T08:09:26;5.72;;;3.33;;
47113;SDS011;32867;51.556;6.832;2023-03-16T08:14:29;5.50;;;3.40;;
47113;SDS011;32867;51.556;6.832;2023-03-16T08:19:45;7.73;;;3.43;;
47113;SDS011;32867;51.556;6.832;2023-03-16T08:24:48;5.47;;;3.22;;
47113;SDS011;32867;51.556;6.832;2023-03-16T08:29:51;6.30;;;3.60;;
47113;SDS011;32867;51.556;6.832;2023-03-16T08:34:54;8.18;;;3.78;;
47113;SDS011;32867;51.556;6.832;2023-03-16T08:39:56;6.18;;;3.63;;
47113;SDS011;32867;51.556;6.832;2023-03-16T08:44:59;6.00;;;3.67;;
47113;SDS011;32867;51.556;6.832;2023-03-16T08:50:03;6.47;;;3.33;;
47113;SDS011;32867;51.556;6.832;2023-03-16T08:55:05;6.95;;;3.63;;
47113;SDS011;32867;51.556;6.832;2023-03-16T09:00:08;5.18;;;3.45;;
47113;SDS011;32867;51.556;6.832;2023-03-16T09:05:13;6.68;;;3.70;;
47113;SDS011;32867;51.556;6.832;2023-03-16T09:10:15;7.35;;;3.88;;
47113;SDS011;32867;51.556;6.832;2023-03-16T09:15:16;6.43;;;3.78;;
47113;SDS011;32867;51.556;6.832;2023-03-16T09:20:18;7.18;;;4.07;;
47113;SDS011;32867;51.556;6.832;2023-03-16T09:25:20;6.55;;;3.50;;
47113;SDS011;32867;51.556;6.832;2023-03-16T09:30:21;9.15;;;4.13;;
47113;SDS011;32867;51.556;6.832;2023-03-16T09:35:22;6.28;;;4.07;;
47113;SDS011;32867;51.556;6.832;2023-03-16T09:40:23;6.57;;;3.80;;
47113;SDS011;32867;51.556;6.832;2023-03-16T09:50:36;6.57;;;3.50;;
47113;SDS011;32867;51.556;6.832;2023-03-16T09:55:39;6.90;;;3.75;;
47113;SDS011;32867;51.556;6.832;2023-03-16T10:06:10;7.50;;;4.05;;
47113;SDS011;32867;51.556;6.832;2023-03-16T10:16:39;6.68;;;3.70;;
47113;SDS011;32867;51.556;6.832;2023-03-16T10:21:45;7.93;;;3.92;;
47113;SDS011;32867;51.556;6.832;2023-03-16T10:26:49;5.47;;;3.30;;
47113;SDS011;32867;51.556;6.832;2023-03-16T10:31:58;4.93;;;3.13;;
47113;SDS011;32867;51.556;6.832;2023-03-16T10:37:07;7.03;;;3.28;;
47113;SDS011;32867;51.556;6.832;2023-03-16T10:42:13;5.93;;;2.83;;
47113;SDS011;32867;51.556;6.832;2023-03-16T10:47:21;6.18;;;3.30;;
47113;SDS011;32867;51.556;6.832;2023-03-16T10:57:54;7.88;;;3.50;;
47113;SDS011;32867;51.556;6.832;2023-03-16T11:02:57;6.20;;;3.83;;
47113;SDS011;32867;51.556;6.832;2023-03-16T11:08:11;6.20;;;3.60;;
47113;SDS011;32867;51.556;6.832;2023-03-16T11:13:15;7.78;;;3.55;;
47113;SDS011;32867;51.556;6.832;2023-03-16T11:18:34;7.70;;;3.53;;
47113;SDS011;32867;51.556;6.832;2023-03-16T11:23:47;6.68;;;3.20;;
47113;SDS011;32867;51.556;6.832;2023-03-16T11:28:55;6.93;;;3.42;;
47113;SDS011;32867;51.556;6.832;2023-03-16T11:34:11;4.07;;;2.90;;
47113;SDS011;32867;51.556;6.832;2023-03-16T11:39:36;4.90;;;2.72;;
47113;SDS011;32867;51.556;6.832;2023-03-16T12:05:57;5.20;;;2.40;;
47113;SDS011;32867;51.556;6.832;2023-03-16T12:11:02;4.03;;;2.38;;
47113;SDS011;32867;51.556;6.832;2023-03-16T12:16:24;5.22;;;2.72;;
47113;SDS011;32867;51.556;6.832;2023-03-16T12:21:34;5.50;;;2.60;;
47113;SDS011;32867;51.556;6.832;2023-03-16T12:26:39;5.15;;;2.10;;
47113;SDS011;32867;51.556;6.832;2023-03-16T12:31:52;5.25;;;2.67;;
47113;SDS011;32867;51.556;6.832;2023-03-16T12:37:04;4.55;;;2.20;;
47113;SDS011;32867;51.556;6.832;2023-03-16T12:52:43;4.82;;;2.50;;
47113;SDS011;32867;51.556;6.832;2023-03-16T12:57:47;5.05;;;2.28;;
47113;SDS011;32867;51.556;6.832;2023-03-16T13:02:52;4.95;;;2.10;;
47113;SDS011;32867;51.556;6.832;2023-03-16T13:08:38;4.32;;;1.98;;
47113;SDS011;32867;51.556;6.832;2023-03-16T13:13:23;4.50;;;2.25;;
47113;SDS011;32867;51.556;6.832;2023-03-16T13:18:25;3.92;;;2.40;;
47113;SDS011;32867;51.556;6.832;2023-03-16T13:28:57;5.50;;;2.47;;
47113;SDS011;32867;51.556;6.832;2023-03-16T13:33:58;4.38;;;2.20;;
47113;SDS011;32867;51.556;6.832;2023-03-16T13:39:05;5.43;;;2.28;;
47113;SDS011;32867;51.556;6.832;2023-03-16T13:44:14;5.25;;;2.20;;
47113;SDS011;32867;51.556;6.832;2023-03-16T13:49:14;4.40;;;1.92;;
47113;SDS011;32867;51.556;6.832;2023-03-16T13:54:24;4.80;;;2.30;;
47113;SDS011;32867;51.556;6.832;2023-03-16T13:59:27;4.30;;;2.17;;
47113;SDS011;32867;51.556;6.832;2023-03-16T14:04:30;4.93;;;2.50;;
47113;SDS011;32867;51.556;6.832;2023-03-16T14:09:33;4.10;;;2.10;;
47113;SDS011;32867;51.556;6.832;2023-03-16T14:14:39;3.78;;;1.80;;
47113;SDS011;32867;51.556;6.832;2023-03-16T14:19:51;3.88;;;2.05;;
47113;SDS011;32867;51.556;6.832;2023-03-16T14:24:57;4.05;;;2.20;;
47113;SDS011;32867;51.556;6.832;2023-03-16T14:30:01;5.15;;;1.88;;
47113;SDS011;32867;51.556;6.832;2023-03-16T14:35:15;5.63;;;2.00;;
47113;SDS011;32867;51.556;6.832;2023-03-16T14:40:31;4.00;;;1.90;;
47113;SDS011;32867;51.556;6.832;2023-03-16T14:45:32;4.55;;;2.25;;
47113;SDS011;32867;51.556;6.832;2023-03-16T14:50:34;4.18;;;1.95;;
47113;SDS011;32867;51.556;6.832;2023-03-16T14:55:36;4.53;;;2.00;;
47113;SDS011;32867;51.556;6.832;2023-03-16T15:00:36;4.35;;;1.85;;
47113;SDS011;32867;51.556;6.832;2023-03-16T15:05:38;3.88;;;1.67;;
47113;SDS011;32867;51.556;6.832;2023-03-16T15:10:41;4.15;;;1.60;;
47113;SDS011;32867;51.556;6.832;2023-03-16T15:15:43;3.08;;;1.67;;
47113;SDS011;32867;51.556;6.832;2023-03-16T15:20:46;3.60;;;1.60;;
47113;SDS011;32867;51.556;6.832;2023-03-16T15:25:49;5.28;;;2.33;;
47113;SDS011;32867;51.556;6.832;2023-03-16T15:30:55;2.90;;;1.60;;
47113;SDS011;32867;51.556;6.832;2023-03-16T15:35:59;3.72;;;1.70;;
47113;SDS011;32867;51.556;6.832;2023-03-16T15:41:01;5.70;;;1.90;;
47113;SDS011;32867;51.556;6.832;2023-03-16T15:46:02;3.20;;;1.50;;
47113;SDS011;32867;51.556;6.832;2023-03-16T15:51:10;2.95;;;1.42;;
47113;SDS011;32867;51.556;6.832;2023-03-16T15:56:14;4.22;;;1.35;;
47113;SDS011;32867;51.556;6.832;2023-03-16T16:01:23;3.20;;;1.50;;
47113;SDS011;32867;51.556;6.832;2023-03-16T16:06:25;2.83;;;1.40;;
47113;SDS011;32867;51.556;6.832;2023-03-16T16:11:27;3.25;;;1.20;;
47113;SDS011;32867;51.556;6.832;2023-03-16T16:16:28;4.15;;;1.70;;
47113;SDS011;32867;51.556;6.832;2023-03-16T16:21:30;2.85;;;1.20;;
47113;SDS011;32867;51.556;6.832;2023-03-16T16:26:37;3.75;;;1.42;;
47113;SDS011;32867;51.556;6.832;2023-03-16T16:31:44;3.47;;;1.63;;
47113;SDS011;32867;51.556;6.832;2023-03-16T16:36:44;2.60;;;1.30;;
47113;SDS011;32867;51.556;6.832;2023-03-16T16:41:45;4.10;;;1.77;;
47113;SDS011;32867;51.556;6.832;2023-03-16T16:46:49;3.65;;;1.55;;
47113;SDS011;32867;51.556;6.832;2023-03-16T16:51:51;3.40;;;1.60;;
47113;SDS011;32867;51.556;6.832;2023-03-16T16:56:52;4.45;;;1.90;;
47113;SDS011;32867;51.556;6.832;2023-03-16T17:01:54;3.00;;;1.60;;
47113;SDS011;32867;51.556;6.832;2023-03-16T17:06:57;3.72;;;1.90;;
47113;SDS011;32867;51.556;6.832;2023-03-16T17:12:00;4.72;;;1.70;;
47113;SDS011;32867;51.556;6.832;2023-03-16T17:17:01;4.05;;;1.60;;
47113;SDS011;32867;51.556;6.832;2023-03-16T17:22:19;4.13;;;1.85;;
47113;SDS011;32867;51.556;6.832;2023-03-16T17:27:23;4.78;;;1.90;;
47113;SDS011;32867;51.556;6.832;2023-03-16T17:32:28;3.27;;;1.70;;
47113;SDS011;32867;51.556;6.832;2023-03-16T17:37:28;3.83;;;2.22;;
47113;SDS011;32867;51.556;6.832;2023-03-16T17:42:29;3.95;;;2.17;;
47113;SDS011;32867;51.556;6.832;2023-03-16T17:47:29;5.50;;;2.80;;
47113;SDS011;32867;51.556;6.832;2023-03-16T17:52:35;4.25;;;2.45;;
47113;SDS011;32867;51.556;6.832;2023-03-16T17:57:36;6.55;;;2.35;;
47113;SDS011;32867;51.556;6.832;2023-03-16T18:02:51;5.47;;;2.45;;
47113;SDS011;32867;51.556;6.832;2023-03-16T18:07:54;6.70;;;2.38;;
47113;SDS011;32867;51.556;6.832;2023-03-16T18:12:58;5.10;;;2.80;;
47113;SDS011;32867;51.556;6.832;2023-03-16T18:18:03;6.30;;;2.50;;
47113;SDS011;32867;51.556;6.832;2023-03-16T18:23:16;4.38;;;2.50;;
47113;SDS011;32867;51.556;6.832;2023-03-16T18:28:20;5.55;;;2.53;;
47113;SDS011;32867;51.556;6.832;2023-03-16T18:33:25;5.18;;;2.85;;
47113;SDS011;32867;51.556;6.832;2023-03-16T18:38:30;3.72;;;2.33;;
47113;SDS011;32867;51.556;6.832;2023-03-16T18:43:36;4.93;;;2.83;;
47113;SDS011;32867;51.556;6.832;2023-03-16T18:48:37;4.97;;;2.38;;
47113;SDS011;32867;51.556;6.832;2023-03-16T18:53:38;4.50;;;2.40;;
47113;SDS011;32867;51.556;6.832;2023-03-16T18:58:38;5.57;;;2.63;;
47113;SDS011;32867;51.556;6.832;2023-03-16T19:03:41;6.07;;;2.90;;
47113;SDS011;32867;51.556;6.832;2023-03-16T19:08:42;4.88;;;2.67;;
47113;SDS011;32867;51.556;6.832;2023-03-16T19:13:43;5.88;;;2.30;;
47113;SDS011;32867;51.556;6.832;2023-03-16T19:18:44;5.90;;;2.60;;
47113;SDS011;32867;51.556;6.832;2023-03-16T19:23:46;5.45;;;2.28;;
47113;SDS011;32867;51.556;6.832;2023-03-16T19:28:55;4.60;;;2.50;;
47113;SDS011;32867;51.556;6.832;2023-03-16T19:33:56;6.32;;;2.42;;
47113;SDS011;32867;51.556;6.832;2023-03-16T19:38:58;4.55;;;2.33;;
47113;SDS011;32867;51.556;6.832;2023-03-16T19:49:24;5.60;;;2.65;;
47113;SDS011;32867;51.556;6.832;2023-03-16T19:54:26;5.22;;;2.47;;
47113;SDS011;32867;51.556;6.832;2023-03-16T19:59:31;5.22;;;2.45;;
47113;SDS011;32867;51.556;6.832;2023-03-16T20:04:33;5.88;;;2.50;;
47113;SDS011;32867;51.556;6.832;2023-03-16T20:09:34;4.15;;;2.25;;
47113;SDS011;32867;51.556;6.832;2023-03-16T20:14:34;6.78;;;2.70;;
47113;SDS011;32867;51.556;6.832;2023-03-16T20:19:35;5.30;;;2.85;;
47113;SDS011;32867;51.556;6.832;2023-03-16T20:24:36;5.50;;;2.45;;
47113;SDS011;32867;51.556;6.832;2023-03-16T20:29:37;5.70;;;2.42;;
47113;SDS011;32867;51.556;6.832;2023-03-16T20:34:38;4.97;;;2.60;;
47113;SDS011;32867;51.556;6.832;2023-03-16T20:39:39;4.40;;;2.38;;
47113;SDS011;32867;51.556;6.832;2023-03-16T20:44:39;5.13;;;2.53;;
47113;SDS011;32867;51.556;6.832;2023-03-16T20:49:40;5.38;;;2.70;;
47113;SDS011;32867;51.556;6.832;2023-03-16T20:54:41;4.47;;;2.45;;
47113;SDS011;32867;51.556;6.832;2023-03-16T20:59:42;4.72;;;2.03;;
47113;SDS011;32867;51.556;6.832;2023-03-16T21:04:45;4.65;;;2.45;;
47113;SDS011;32867;51.556;6.832;2023-03-16T21:09:46;5.63;;;2.83;;
47113;SDS011;32867;51.556;6.832;2023-03-16T21:14:48;6.05;;;2.60;;
47113;SDS011;32867;51.556;6.832;2023-03-16T21:19:49;4.55;;;2.60;;
47113;SDS011;32867;51.556;6.832;2023-03-16T21:24:50;4.53;;;2.45;;
47113;SDS011;32867;51.556;6.832;2023-03-16T21:29:52;4.68;;;2.65;;
47113;SDS011;32867;51.556;6.832;2023-03-16T21:34:54;5.30;;;2.63;;
47113;SDS011;32867;51.556;6.832;2023-03-16T21:39:56;4.70;;;2.58;;
47113;SDS011;32867;51.556;6.832;2023-03-16T21:44:56;4.97;;;2.85;;
47113;SDS011;32867;51.556;6.832;2023-03-16T21:49:57;4.40;;;2.53;;
47113;SDS011;32867;51.556;6.832;2023-03-16T21:54:58;5.28;;;2.78;;
47113;SDS011;32867;51.556;6.832;2023-03-16T21:59:59;5.38;;;2.38;;
47113;SDS011;32867;51.556;6.832;2023-03-16T22:05:00;4.90;;;2.22;;
47113;SDS011;32867;51.556;6.832;2023-03-16T22:10:01;7.45;;;3.28;;
47113;SDS011;32867;51.556;6.832;2023-03-16T22:15:12;5.53;;;2.47;;
47113;SDS011;32867;51.556;6.832;2023-03-16T22:20:14;4.28;;;2.08;;
47113;SDS011;32867;51.556;6.832;2023-03-16T22:25:19;4.38;;;2.42;;
47113;SDS011;32867;51.556;6.832;2023-03-16T22:30:23;4.43;;;2.30;;
47113;SDS011;32867;51.556;6.832;2023-03-16T22:35:28;4.80;;;2.20;;
47113;SDS011;32867;51.556;6.832;2023-03-16T22:40:35;5.72;;;2.60;;
47113;SDS011;32867;51.556;6.832;2023-03-16T22:45:38;4.72;;;2.38;;
47113;SDS011;32867;51.556;6.832;2023-03-16T22:50:39;4.03;;;2.47;;
47113;SDS011;32867;51.556;6.832;2023-03-16T22:55:39;4.13;;;2.15;;
47113;SDS011;32867;51.556;6.832;2023-03-16T23:00:40;4.63;;;2.40;;
47113;SDS011;32867;51.556;6.832;2023-03-16T23:05:41;4.05;;;2.15;;
47113;SDS011;32867;51.556;6.832;2023-03-16T23:10:42;3.88;;;2.20;;
47113;SDS011;32867;51.556;6.832;2023-03-16T23:15:44;5.55;;;2.20;;
47113;SDS011;32867;51.556;6.832;2023-03-16T23:20:47;5.75;;;2.10;;
47113;SDS011;32867;51.556;6.832;2023-03-16T23:25:48;3.78;;;1.95;;
47113;SDS011;32867;51.556;6.832;2023-03-16T23:30:49;3.20;;;1.80;;
47113;SDS011;32867;51.556;6.832;2023-03-16T23:35:50;5.57;;;2.25;;
47113;SDS011;32867;51.556;6.832;2023-03-16T23:40:50;4.82;;;2.30;;
47113;SDS011;32867;51.556;6.832;2023-03-16T23:45:51;4.50;;;2.10;;
47113;SDS011;32867;51.556;6.832;2023-03-16T23:50:52;3.35;;;1.88;;
47113;SDS011;32867;51.556;6.832;2023-03-16T23:55:55;2.95;;;1.77;;
